Time;durP1;ratioP1;P1;durP2;ratioP2;P2;SDS_P1;SDS_P2;PMS_P1;PMS_P2;Temp;Humidity;BMP_temperature;BMP_pressure;BME280_temperature;BME280_humidity;BME280_pressure;Samples;Min_cycle;Max_cycle;Signal;HPM_P1;HPM_P2
2021/10/10 00:00:12;;;;;;;16.25;10.05;;;;;;;1.61;89.42;91439.34;5058237;28;20042;-88
2021/10/10 00:02:38;;;;;;;19.23;10.30;;;;;;;1.66;90.37;91445.25;5041908;28;20020;-89
2021/10/10 00:05:03;;;;;;;15.35;9.02;;;;;;;1.59;87.74;91437.06;5074754;28;20496;-89
2021/10/10 00:07:29;;;;;;;17.95;9.02;;;;;;;1.41;86.40;91435.81;5093175;28;20032;-89
2021/10/10 00:09:54;;;;;;;17.70;8.55;;;;;;;1.47;85.44;91443.47;5058423;28;20050;-89
2021/10/10 00:12:20;;;;;;;16.55;8.73;;;;;;;1.32;85.50;91442.47;5074926;28;20024;-89
2021/10/10 00:14:45;;;;;;;15.20;8.60;;;;;;;1.26;85.21;91437.59;5074739;28;20032;-89
2021/10/10 00:17:11;;;;;;;15.45;9.02;;;;;;;1.09;86.56;91437.84;5075010;28;20024;-88
2021/10/10 00:19:36;;;;;;;14.75;8.95;;;;;;;1.00;86.57;91444.53;5057931;28;20019;-90
2021/10/10 00:22:01;;;;;;;16.77;9.48;;;;;;;1.06;86.44;91436.59;5074971;28;20024;-89
2021/10/10 00:24:27;;;;;;;17.73;9.15;;;;;;;1.05;86.40;91431.69;5074653;28;20024;-89
2021/10/10 00:26:52;;;;;;;15.95;9.38;;;;;;;0.90;87.13;91438.38;5074415;28;20035;-88
2021/10/10 00:29:18;;;;;;;16.40;9.00;;;;;;;0.90;86.95;91435.81;5091646;28;20028;-89
2021/10/10 00:31:43;;;;;;;18.33;10.77;;;;;;;0.80;86.48;91435.78;5091544;28;20020;-89
2021/10/10 00:34:09;;;;;;;17.88;10.35;;;;;;;0.91;86.31;91436.56;5091135;28;20310;-89
2021/10/10 00:36:34;;;;;;;19.73;9.15;;;;;;;1.10;85.43;91431.72;5074138;28;20019;-89
2021/10/10 00:39:00;;;;;;;18.13;8.93;;;;;;;0.93;86.09;91431.97;5074024;28;20031;-89
2021/10/10 00:41:25;;;;;;;15.02;8.88;;;;;;;0.88;86.53;91432.75;5074398;28;20016;-89
2021/10/10 00:43:51;;;;;;;20.60;9.00;;;;;;;0.96;86.09;91436.59;5091537;28;20023;-89
2021/10/10 00:46:16;;;;;;;20.58;9.63;;;;;;;0.93;85.45;91432.72;5100269;23;20041;-87
2021/10/10 00:48:42;;;;;;;16.33;9.05;;;;;;;0.88;86.72;91435.31;5033713;28;20056;-87
2021/10/10 00:51:07;;;;;;;15.13;8.93;;;;;;;0.83;86.10;91430.16;5017574;28;20033;-87
2021/10/10 00:53:34;;;;;;;17.42;8.75;;;;;;;0.80;86.44;91429.91;5000828;28;20063;-88
2021/10/10 00:56:00;;;;;;;15.52;8.10;;;;;;;0.86;85.11;91423.75;5018117;28;20063;-87
2021/10/10 00:58:25;;;;;;;15.80;8.85;;;;;;;0.84;85.50;91421.44;5045159;28;20492;-87
2021/10/10 01:00:51;;;;;;;16.55;7.90;;;;;;;0.75;86.36;91425.53;5038093;28;20108;-87
2021/10/10 01:03:17;;;;;;;14.20;8.63;;;;;;;0.72;86.12;91420.91;5020814;28;20036;-87
2021/10/10 01:05:42;;;;;;;17.58;8.38;;;;;;;0.74;86.55;91420.66;5037523;28;20041;-87
2021/10/10 01:08:08;;;;;;;17.88;8.52;;;;;;;0.80;87.79;91424.75;5037504;28;20021;-87
2021/10/10 01:10:35;;;;;;;15.68;9.43;;;;;;;0.73;88.33;91408.84;5021184;28;20028;-87
2021/10/10 01:13:00;;;;;;;16.05;8.35;;;;;;;0.72;88.05;91415.78;5037929;28;20026;-88
2021/10/10 01:15:27;;;;;;;19.60;9.05;;;;;;;0.79;88.53;91407.84;5037261;28;20052;-87
2021/10/10 01:17:53;;;;;;;17.20;9.02;;;;;;;0.80;87.47;91410.13;5020859;28;20509;-87
2021/10/10 01:20:19;;;;;;;16.30;8.63;;;;;;;0.84;86.78;91406.03;5020695;28;20025;-89
2021/10/10 01:22:44;;;;;;;16.92;9.52;;;;;;;0.67;85.40;91405.50;5020847;28;20021;-88
2021/10/10 01:25:09;;;;;;;14.65;7.82;;;;;;;0.79;85.12;91403.47;5004734;28;20422;-87
2021/10/10 01:27:35;;;;;;;17.83;8.73;;;;;;;0.51;85.07;91403.97;5022215;28;20025;-87
2021/10/10 01:30:01;;;;;;;14.15;7.45;;;;;;;0.37;86.26;91401.88;5038324;28;20029;-89
2021/10/10 01:32:26;;;;;;;17.60;9.10;;;;;;;0.35;85.73;91398.78;5006049;28;20029;-87
2021/10/10 01:34:52;;;;;;;16.73;8.25;;;;;;;0.23;85.48;91400.84;5023152;28;20029;-87
2021/10/10 01:37:17;;;;;;;16.65;8.82;;;;;;;0.19;86.31;91397.22;5025159;28;20403;-88
2021/10/10 01:39:43;;;;;;;21.15;8.75;;;;;;;0.18;86.10;91393.91;5039913;28;20029;-91
2021/10/10 01:42:08;;;;;;;16.58;8.20;;;;;;;0.30;86.13;91398.78;5040604;28;20021;-90
2021/10/10 01:44:34;;;;;;;15.05;8.52;;;;;;;0.20;85.45;91391.06;5029587;28;20026;-87
2021/10/10 01:46:59;;;;;;;15.98;7.93;;;;;;;0.21;86.00;91388.28;5036691;28;20099;-88
2021/10/10 01:49:25;;;;;;;13.75;8.30;;;;;;;0.28;85.22;91382.88;5020166;28;20032;-87
2021/10/10 01:51:50;;;;;;;16.52;8.23;;;;;;;0.10;85.51;91388.47;5003913;28;20021;-87
2021/10/10 01:54:16;;;;;;;17.70;8.50;;;;;;;0.14;85.74;91389.53;5004224;28;20033;-87
2021/10/10 01:56:41;;;;;;;14.25;7.35;;;;;;;-0.02;86.47;91389.47;5020584;28;20108;-86
2021/10/10 01:59:07;;;;;;;16.67;8.13;;;;;;;-0.05;86.45;91378.97;5039119;28;20028;-87
2021/10/10 02:01:32;;;;;;;13.23;7.30;;;;;;;-0.05;85.72;91381.53;5035439;28;20026;-91
2021/10/10 02:03:58;;;;;;;16.67;7.75;;;;;;;-0.01;85.44;91385.13;5046579;28;20025;-86
2021/10/10 02:06:23;;;;;;;13.82;7.75;;;;;;;-0.13;85.66;91387.91;5036528;28;20043;-87
2021/10/10 02:08:49;;;;;;;16.15;7.63;;;;;;;-0.23;85.98;91379.44;5019876;28;20041;-88
2021/10/10 02:11:14;;;;;;;15.75;8.15;;;;;;;-0.27;86.93;91386.84;5036852;28;20102;-89
2021/10/10 02:13:40;;;;;;;15.00;8.60;;;;;;;-0.22;86.91;91384.28;5037230;28;20111;-87
2021/10/10 02:16:05;;;;;;;15.82;8.07;;;;;;;-0.01;87.08;91378.19;5020361;28;20025;-87
2021/10/10 02:18:31;;;;;;;13.63;8.27;;;;;;;-0.12;86.83;91374.06;5020923;28;20021;-87
2021/10/10 02:20:56;;;;;;;13.98;7.72;;;;;;;-0.15;85.67;91376.38;5022153;28;20108;-87
2021/10/10 02:23:22;;;;;;;15.88;8.07;;;;;;;0.01;87.87;91374.63;5039382;28;20063;-87
2021/10/10 02:25:47;;;;;;;14.70;8.43;;;;;;;-0.06;86.10;91369.75;5056262;28;20482;-87
2021/10/10 02:28:12;;;;;;;13.23;8.00;;;;;;;-0.11;87.12;91375.59;5056504;28;20024;-87
2021/10/10 02:30:38;;;;;;;16.67;7.47;;;;;;;-0.25;87.28;91370.22;5056502;28;20021;-87
2021/10/10 02:33:03;;;;;;;15.98;8.18;;;;;;;-0.42;85.88;91371.41;5056344;28;20025;-87
2021/10/10 02:35:29;;;;;;;16.50;8.25;;;;;;;-0.10;86.70;91372.03;5040225;28;20091;-87
2021/10/10 02:37:54;;;;;;;16.80;8.77;;;;;;;-0.10;87.79;91369.47;5055699;28;20025;-88
2021/10/10 02:40:20;;;;;;;16.13;7.72;;;;;;;-0.27;86.79;91362.00;5055858;28;20499;-87
2021/10/10 02:42:45;;;;;;;14.35;8.05;;;;;;;-0.20;86.01;91377.13;5039684;28;20028;-87
2021/10/10 02:45:11;;;;;;;15.32;7.55;;;;;;;-0.23;84.99;91382.75;5055480;28;20025;-86
2021/10/10 02:47:36;;;;;;;12.82;7.72;;;;;;;-0.44;86.17;91378.56;5071995;28;20032;-87
2021/10/10 02:50:02;;;;;;;14.40;7.75;;;;;;;-0.51;86.14;91374.44;5039076;28;20025;-87
2021/10/10 02:52:28;;;;;;;16.58;7.53;;;;;;;-0.52;86.44;91379.81;5055487;28;20115;-87
2021/10/10 02:54:53;;;;;;;16.55;7.82;;;;;;;-0.33;86.35;91377.59;5071549;28;20059;-91
2021/10/10 02:57:19;;;;;;;13.75;8.05;;;;;;;-0.47;87.11;91372.16;5078511;28;20009;-92
2021/10/10 02:59:45;;;;;;;13.95;7.70;;;;;;;-0.53;86.46;91381.63;5077506;28;20068;-88
2021/10/10 03:02:11;;;;;;;11.57;7.03;;;;;;;-0.52;86.92;91375.47;5038416;28;20340;-86
2021/10/10 03:04:36;;;;;;;13.05;7.03;;;;;;;-0.61;86.46;91366.72;5071819;28;20499;-87
2021/10/10 03:07:02;;;;;;;12.45;6.85;;;;;;;-0.67;86.42;91372.84;5055104;28;20065;-88
2021/10/10 03:09:27;;;;;;;15.27;8.05;;;;;;;-0.69;87.35;91374.88;5071227;28;20182;-87
2021/10/10 03:11:52;;;;;;;12.55;6.95;;;;;;;-0.67;87.29;91366.94;5054745;28;20034;-87
2021/10/10 03:14:18;;;;;;;18.60;7.72;;;;;;;-0.55;87.02;91370.84;5054034;28;20391;-87
2021/10/10 03:16:43;;;;;;;12.15;7.25;;;;;;;-0.65;86.53;91372.56;5054331;28;20036;-87
2021/10/10 03:19:09;;;;;;;15.35;7.22;;;;;;;-0.55;87.19;91370.84;5053269;28;20040;-87
2021/10/10 03:21:34;;;;;;;13.85;7.22;;;;;;;-0.57;86.81;91379.78;5055370;28;20406;-88
2021/10/10 03:24:00;;;;;;;13.00;7.18;;;;;;;-0.57;87.64;91372.09;5055098;28;20028;-87
2021/10/10 03:26:26;;;;;;;16.63;8.80;;;;;;;-0.58;88.02;91373.91;5038424;28;20090;-86
2021/10/10 03:28:51;;;;;;;14.88;7.50;;;;;;;-0.49;87.72;91374.19;5071936;28;20075;-87
2021/10/10 03:31:16;;;;;;;13.18;7.40;;;;;;;-0.45;87.93;91374.47;5038166;28;20036;-87
2021/10/10 03:33:42;;;;;;;15.23;7.78;;;;;;;-0.58;88.80;91361.09;5037495;28;20025;-87
2021/10/10 03:36:08;;;;;;;11.27;7.05;;;;;;;-0.43;87.70;91377.53;5054488;28;20029;-88
2021/10/10 03:38:33;;;;;;;12.40;6.50;;;;;;;-0.49;88.15;91367.28;5054932;28;20024;-86
2021/10/10 03:40:59;;;;;;;14.57;7.22;;;;;;;-0.51;89.55;91373.66;5054199;28;20025;-87
2021/10/10 03:43:24;;;;;;;11.50;6.80;;;;;;;-0.50;90.04;91373.41;5037965;28;20017;-88
2021/10/10 03:45:50;;;;;;;15.85;7.25;;;;;;;-0.37;87.80;91371.44;5070334;28;20021;-94
2021/10/10 03:48:15;;;;;;;11.05;6.28;;;;;;;-0.51;87.28;91376.22;5043207;28;20036;-87
2021/10/10 03:50:40;;;;;;;11.13;6.68;;;;;;;-0.54;88.04;91367.25;5055063;28;20618;-87
2021/10/10 03:53:06;;;;;;;13.98;7.38;;;;;;;-0.60;87.51;91373.38;5036899;28;20036;-88
2021/10/10 03:57:57;;;;;;;12.68;6.95;;;;;;;-0.72;87.99;91365.13;5046758;28;20025;-86
2021/10/10 04:00:23;;;;;;;10.90;6.90;;;;;;;-0.67;88.20;91370.28;5070638;28;20572;-86
2021/10/10 04:02:49;;;;;;;16.55;6.70;;;;;;;-0.61;87.25;91376.19;5037318;28;20028;-87
2021/10/10 04:05:19;;;;;;;11.25;6.40;;;;;;;-0.54;85.87;91382.63;5037276;28;20021;-87
2021/10/10 04:07:45;;;;;;;10.70;6.72;;;;;;;-0.68;85.99;91378.97;5038371;28;20020;-87
2021/10/10 04:10:10;;;;;;;16.17;6.40;;;;;;;-0.87;84.90;91362.50;5054696;28;20383;-88
2021/10/10 04:12:36;;;;;;;13.57;6.53;;;;;;;-0.57;85.94;91372.88;5053119;28;20032;-87
2021/10/10 04:15:01;;;;;;;11.65;6.18;;;;;;;-0.68;86.48;91371.28;5054346;28;20040;-87
2021/10/10 04:17:26;;;;;;;13.23;6.30;;;;;;;-0.61;85.96;91363.38;5075399;28;20395;-89
2021/10/10 04:19:52;;;;;;;15.35;7.38;;;;;;;-0.76;85.50;91369.97;5046456;28;20017;-86
2021/10/10 04:22:17;;;;;;;11.43;7.03;;;;;;;-0.93;85.66;91363.47;5034181;28;20025;-87
2021/10/10 04:24:43;;;;;;;12.10;6.38;;;;;;;-0.98;86.43;91357.31;5017912;28;20029;-90
2021/10/10 04:27:08;;;;;;;13.40;6.68;;;;;;;-0.74;87.87;91364.63;5017596;28;20040;-87
2021/10/10 04:29:34;;;;;;;12.10;6.05;;;;;;;-0.72;87.63;91360.00;5033657;28;20537;-87
2021/10/10 04:31:59;;;;;;;10.48;6.60;;;;;;;-0.86;86.56;91358.91;5033437;28;20030;-90
2021/10/10 04:34:25;;;;;;;12.15;6.22;;;;;;;-0.68;88.53;91365.41;5016958;28;20033;-87
2021/10/10 04:36:50;;;;;;;11.30;6.45;;;;;;;-0.96;86.78;91365.50;5016667;28;20029;-87
2021/10/10 04:39:16;;;;;;;11.73;6.72;;;;;;;-1.03;88.01;91359.81;5016758;28;20025;-90
2021/10/10 04:41:41;;;;;;;13.38;6.63;;;;;;;-0.96;89.42;91369.84;5033331;28;20075;-87
2021/10/10 04:44:07;;;;;;;11.07;6.03;;;;;;;-0.85;87.91;91368.13;5033809;28;20018;-87
2021/10/10 04:46:32;;;;;;;9.63;6.00;;;;;;;-0.90;86.72;91368.09;5034350;28;20033;-87
2021/10/10 04:48:57;;;;;;;12.50;6.72;;;;;;;-1.07;87.65;91366.44;5033587;28;20033;-87
2021/10/10 04:51:23;;;;;;;11.68;6.18;;;;;;;-1.12;86.57;91363.88;5017098;28;20033;-86
2021/10/10 04:53:48;;;;;;;12.07;6.30;;;;;;;-1.22;87.06;91364.56;5034424;28;20021;-88
2021/10/10 04:56:14;;;;;;;9.82;5.43;;;;;;;-1.10;87.51;91361.06;5017367;28;20495;-87
2021/10/10 04:58:39;;;;;;;13.40;6.32;;;;;;;-1.14;86.92;91358.22;5034858;28;20029;-87
2021/10/10 05:01:05;;;;;;;10.60;5.80;;;;;;;-1.24;87.09;91358.94;5034158;28;20026;-89
2021/10/10 05:03:30;;;;;;;12.95;6.28;;;;;;;-1.15;87.54;91369.47;5017437;28;20036;-87
2021/10/10 05:05:56;;;;;;;14.20;6.57;;;;;;;-1.20;86.92;91359.22;5035066;28;20022;-87
2021/10/10 05:08:21;;;;;;;9.23;5.53;;;;;;;-1.16;88.51;91359.50;5017822;28;20040;-89
2021/10/10 05:10:46;;;;;;;8.77;5.22;;;;;;;-1.10;88.17;91359.25;5018068;28;20032;-87
2021/10/10 05:13:12;;;;;;;10.93;6.00;;;;;;;-0.96;88.96;91360.38;5033493;28;20080;-87
2021/10/10 05:15:37;;;;;;;9.30;5.60;;;;;;;-0.94;89.16;91362.69;5017815;28;20021;-90
2021/10/10 05:18:03;;;;;;;10.90;5.60;;;;;;;-0.85;89.62;91350.19;5017658;28;20514;-87
2021/10/10 05:20:28;;;;;;;12.27;6.57;;;;;;;-0.71;89.47;91353.84;5038946;28;20013;-86
2021/10/10 05:22:54;;;;;;;9.43;5.55;;;;;;;-0.73;88.82;91361.03;5036766;28;20067;-90
2021/10/10 05:25:19;;;;;;;10.00;6.13;;;;;;;-0.74;89.41;91355.13;5021294;28;20017;-87
2021/10/10 05:27:45;;;;;;;9.55;5.97;;;;;;;-0.57;88.14;91362.63;5037826;28;20024;-87
2021/10/10 05:30:10;;;;;;;10.27;6.13;;;;;;;-0.60;88.81;91363.16;5054756;28;20076;-86
2021/10/10 05:32:36;;;;;;;12.15;6.00;;;;;;;-0.74;88.96;91362.06;5038457;28;20487;-87
2021/10/10 05:35:01;;;;;;;9.77;5.72;;;;;;;-0.79;88.46;91364.56;5055502;28;20092;-87
2021/10/10 05:37:27;;;;;;;13.50;5.68;;;;;;;-0.78;88.69;91355.88;5022826;28;20044;-87
2021/10/10 05:39:52;;;;;;;9.05;5.55;;;;;;;-0.82;89.46;91362.50;5040620;28;20070;-88
2021/10/10 05:42:18;;;;;;;11.50;5.90;;;;;;;-0.84;90.62;91354.31;5069980;28;20032;-91
2021/10/10 05:44:43;;;;;;;11.73;5.72;;;;;;;-0.75;90.08;91360.50;5076856;28;20016;-91
2021/10/10 05:47:09;;;;;;;8.45;5.80;;;;;;;-0.70;90.23;91368.22;5069646;28;20502;-87
2021/10/10 05:49:34;;;;;;;10.77;5.55;;;;;;;-0.43;88.66;91357.06;5024146;28;20157;-87
2021/10/10 05:52:00;;;;;;;8.45;5.45;;;;;;;-0.55;89.24;91357.28;5040938;28;20032;-87
2021/10/10 05:54:28;;;;;;;10.90;5.50;;;;;;;-0.63;88.74;91368.00;5023887;28;20096;-88
2021/10/10 05:56:54;;;;;;;10.38;5.90;;;;;;;-0.59;88.90;91358.78;5040553;28;20058;-89
2021/10/10 05:59:20;;;;;;;8.65;5.20;;;;;;;-0.67;89.76;91367.72;5040516;28;20025;-87
2021/10/10 06:01:45;;;;;;;8.48;4.90;;;;;;;-0.76;88.47;91364.09;5040256;28;20117;-87
2021/10/10 06:04:11;;;;;;;11.18;5.63;;;;;;;-0.77;88.24;91367.66;5039786;28;20467;-87
2021/10/10 06:06:36;;;;;;;8.27;5.43;;;;;;;-0.79;87.17;91372.25;5040249;28;20071;-87
2021/10/10 06:09:04;;;;;;;10.00;5.80;;;;;;;-0.84;87.64;91370.44;5037184;28;20021;-91
2021/10/10 06:11:30;;;;;;;9.20;5.50;;;;;;;-0.69;87.42;91380.00;5036692;28;20028;-88
2021/10/10 06:13:55;;;;;;;8.75;5.32;;;;;;;-0.64;86.93;91379.22;5020304;28;20017;-88
2021/10/10 06:16:20;;;;;;;12.40;5.80;;;;;;;-0.59;86.76;91385.16;5036739;28;20426;-88
2021/10/10 06:18:46;;;;;;;11.63;5.40;;;;;;;-0.74;85.89;91375.63;5053487;28;20552;-88
2021/10/10 06:21:11;;;;;;;8.32;5.50;;;;;;;-0.69;87.00;91380.00;5020099;28;20037;-88
2021/10/10 06:23:37;;;;;;;10.10;5.30;;;;;;;-0.65;86.40;91381.03;5037951;28;20479;-88
2021/10/10 06:26:02;;;;;;;9.52;5.85;;;;;;;-0.76;86.30;91384.56;5020055;28;20052;-88
2021/10/10 06:28:28;;;;;;;10.18;5.28;;;;;;;-0.68;86.76;91388.44;5036387;28;20513;-88
2021/10/10 06:30:54;;;;;;;13.10;5.40;;;;;;;-0.62;87.10;91390.78;5020057;28;20399;-89
2021/10/10 06:33:19;;;;;;;11.23;5.00;;;;;;;-0.58;87.19;91391.06;5042483;28;20021;-88
2021/10/10 06:35:45;;;;;;;11.85;5.90;;;;;;;-0.48;87.68;91403.91;5061687;28;20331;-87
2021/10/10 06:38:10;;;;;;;10.63;5.95;;;;;;;-0.38;87.00;91398.84;5036488;28;20483;-86
2021/10/10 06:40:36;;;;;;;9.05;5.43;;;;;;;-0.29;87.11;91394.00;5019651;28;20025;-88
2021/10/10 06:43:02;;;;;;;9.60;5.90;;;;;;;-0.37;86.32;91400.38;5019815;28;20036;-89
2021/10/10 06:45:27;;;;;;;10.80;5.88;;;;;;;-0.34;87.56;91402.44;5076085;23;20044;-91
2021/10/10 06:47:53;;;;;;;11.88;6.38;;;;;;;-0.28;87.53;91405.81;5019264;28;20021;-90
2021/10/10 06:50:18;;;;;;;12.90;6.20;;;;;;;-0.16;89.06;91397.91;5019479;28;20028;-90
2021/10/10 06:52:44;;;;;;;13.40;6.18;;;;;;;-0.01;88.21;91406.38;5019114;28;20084;-91
2021/10/10 06:55:09;;;;;;;10.23;5.80;;;;;;;0.05;87.79;91403.88;5019256;28;20391;-91
2021/10/10 06:57:34;;;;;;;11.77;6.30;;;;;;;0.20;87.76;91398.75;5027169;28;20020;-91
2021/10/10 07:00:00;;;;;;;10.23;6.18;;;;;;;0.31;88.91;91402.88;5019301;28;20029;-90
2021/10/10 07:02:29;;;;;;;10.50;6.35;;;;;;;0.38;88.97;91397.53;5019296;28;20068;-90
2021/10/10 07:04:55;;;;;;;10.80;6.05;;;;;;;0.44;89.27;91402.41;5036052;28;20399;-91
2021/10/10 07:07:21;;;;;;;11.57;5.85;;;;;;;0.55;89.13;91405.00;5035868;28;20021;-91
2021/10/10 07:09:46;;;;;;;11.63;5.78;;;;;;;0.61;88.52;91414.25;5035604;28;20027;-91
2021/10/10 07:12:11;;;;;;;12.35;6.35;;;;;;;0.68;88.51;91412.19;5002384;28;20024;-90
2021/10/10 07:14:37;;;;;;;9.05;5.38;;;;;;;0.79;88.39;91408.59;5018917;28;20017;-91
2021/10/10 07:17:02;;;;;;;8.70;5.13;;;;;;;0.84;87.74;91406.03;5035576;28;20017;-90
2021/10/10 07:19:37;;;;;;;10.27;6.60;;;;;;;0.89;87.49;91408.63;5032344;28;20071;-88
2021/10/10 07:22:14;;;;;;;16.35;8.60;;;;;;;1.03;89.78;91415.81;5017198;28;20392;-88
2021/10/10 07:27:43;;;;;;;9.57;5.20;;;;;;;1.34;88.57;91408.81;4933621;29;20103;-88
2021/10/10 07:30:10;;;;;;;10.82;6.78;;;;;;;1.37;88.13;91408.31;5000920;28;20123;-91
2021/10/10 07:32:36;;;;;;;11.73;7.63;;;;;;;1.51;88.42;91413.69;5031925;28;20032;-91
2021/10/10 07:35:02;;;;;;;13.15;5.88;;;;;;;1.60;88.98;91418.03;5015615;28;20026;-91
2021/10/10 07:37:27;;;;;;;8.98;5.80;;;;;;;1.67;88.77;91412.63;5015387;28;20100;-90
2021/10/10 07:39:52;;;;;;;10.68;5.45;;;;;;;1.80;88.23;91409.50;4998993;28;20025;-91
2021/10/10 07:42:18;;;;;;;12.05;5.32;;;;;;;2.02;89.55;91416.09;4998872;28;20021;-88
2021/10/10 07:44:46;;;;;;;10.80;5.90;;;;;;;2.16;88.54;91409.38;4999133;28;20399;-91
2021/10/10 07:49:52;;;;;;;10.95;6.05;;;;;;;2.47;88.99;91414.34;5003136;28;20099;-89
2021/10/10 07:52:19;;;;;;;8.93;5.30;;;;;;;2.59;88.61;91415.56;4998667;28;20472;-88
2021/10/10 07:54:44;;;;;;;9.10;5.25;;;;;;;2.73;88.10;91415.72;4982862;28;20029;-88
2021/10/10 07:57:10;;;;;;;9.13;5.55;;;;;;;2.92;89.88;91418.41;4998515;28;20494;-88
2021/10/10 07:59:35;;;;;;;9.25;5.18;;;;;;;3.13;88.35;91413.13;4982476;28;20075;-89
2021/10/10 08:02:01;;;;;;;10.13;5.15;;;;;;;3.31;89.08;91418.38;5014947;28;20032;-89
2021/10/10 08:04:27;;;;;;;7.82;4.93;;;;;;;3.43;86.75;91419.81;4998448;28;20021;-88
2021/10/10 08:06:53;;;;;;;8.95;5.18;;;;;;;3.54;77.70;91411.72;5014422;28;20037;-89
2021/10/10 08:09:18;;;;;;;8.63;4.95;;;;;;;3.80;84.03;91414.81;4998924;28;20029;-88
2021/10/10 08:11:44;;;;;;;10.48;4.72;;;;;;;4.06;76.92;91412.75;4998403;28;20380;-89
2021/10/10 08:14:10;;;;;;;10.63;4.60;;;;;;;4.22;78.41;91415.13;4998637;28;20400;-91
2021/10/10 08:16:36;;;;;;;9.05;5.10;;;;;;;4.29;78.35;91411.16;4998605;28;20028;-89
2021/10/10 08:19:01;;;;;;;9.38;4.32;;;;;;;4.49;73.80;91412.72;5000969;28;20794;-89
2021/10/10 08:21:27;;;;;;;9.27;4.85;;;;;;;4.70;79.57;91420.97;5014643;28;20017;-91
2021/10/10 08:23:52;;;;;;;11.18;4.78;;;;;;;4.77;75.54;91418.03;5031221;28;20442;-91
2021/10/10 08:26:18;;;;;;;8.02;4.28;;;;;;;4.83;71.19;91410.97;5014626;28;20030;-91
2021/10/10 08:28:43;;;;;;;10.90;4.50;;;;;;;4.91;72.72;91423.25;4998329;28;20530;-88
2021/10/10 08:31:09;;;;;;;11.40;5.25;;;;;;;5.10;80.03;91418.84;5031032;28;20032;-91
2021/10/10 08:33:34;;;;;;;7.38;4.28;;;;;;;5.19;71.20;91424.88;4997891;28;20052;-89
2021/10/10 08:35:59;;;;;;;7.78;4.30;;;;;;;5.35;68.87;91414.34;5032008;28;20594;-89
2021/10/10 08:38:25;;;;;;;7.57;4.00;;;;;;;5.43;70.39;91416.25;5014684;28;20021;-89
2021/10/10 08:40:50;;;;;;;10.27;4.35;;;;;;;5.61;70.33;91417.25;5034658;28;20071;-89
2021/10/10 08:43:18;;;;;;;7.47;4.22;;;;;;;5.79;70.05;91413.06;5031029;28;20021;-90
2021/10/10 08:45:45;;;;;;;7.45;3.67;;;;;;;5.85;66.12;91419.69;5014862;28;20173;-90
2021/10/10 08:48:10;;;;;;;6.43;3.55;;;;;;;6.04;66.78;91420.38;5031704;28;20021;-87
2021/10/10 08:50:35;;;;;;;7.22;3.67;;;;;;;6.05;65.31;91416.00;5015134;28;20498;-89
2021/10/10 08:53:01;;;;;;;7.35;3.90;;;;;;;6.15;65.16;91416.56;5031309;28;20041;-89
2021/10/10 08:55:28;;;;;;;7.65;3.63;;;;;;;6.23;66.86;91418.47;5031295;28;20034;-89
2021/10/10 08:57:53;;;;;;;11.73;3.70;;;;;;;6.26;62.74;91421.56;5014708;28;20022;-89
2021/10/10 09:00:41;;;;;;;10.70;3.63;;;;;;;6.27;62.49;91420.50;4998116;28;20037;-90
2021/10/10 09:03:10;;;;;;;5.85;3.55;;;;;;;6.36;64.37;91419.53;5014180;28;20108;-89
2021/10/10 09:05:36;;;;;;;5.65;3.40;;;;;;;6.47;61.22;91417.50;5014255;28;20060;-89
2021/10/10 09:08:01;;;;;;;7.70;3.63;;;;;;;6.46;61.18;91419.31;5031049;28;20022;-89
2021/10/10 09:10:28;;;;;;;9.00;3.60;;;;;;;6.55;61.56;91419.41;5031010;28;20029;-89
2021/10/10 09:13:14;;;;;;;8.55;3.78;;;;;;;6.66;61.94;91425.91;5032940;28;20026;-88
2021/10/10 09:15:41;;;;;;;7.50;3.58;;;;;;;6.64;60.19;91428.03;4998753;28;20474;-89
2021/10/10 09:18:07;;;;;;;12.70;4.10;;;;;;;6.61;61.89;91423.44;5001796;28;20553;-89
2021/10/10 09:20:37;;;;;;;7.60;3.58;;;;;;;6.81;62.18;91419.63;5028543;28;20021;-89
2021/10/10 09:23:04;;;;;;;8.63;4.18;;;;;;;6.97;63.36;91420.06;5038050;28;20021;-89
2021/10/10 09:25:29;;;;;;;9.43;3.65;;;;;;;7.01;60.82;91420.25;5021145;28;20036;-89
2021/10/10 09:27:55;;;;;;;5.93;3.40;;;;;;;7.07;61.66;91419.84;5037832;28;20025;-89
2021/10/10 09:30:24;;;;;;;5.13;3.08;;;;;;;7.07;57.73;91422.44;5022020;28;20036;-90
2021/10/10 09:32:55;;;;;;;6.80;3.10;;;;;;;7.11;58.89;91413.03;5054761;28;20024;-89
2021/10/10 09:35:30;;;;;;;9.00;3.80;;;;;;;7.48;58.36;91412.94;5006723;28;20017;-89
2021/10/10 09:38:06;;;;;;;9.88;3.13;;;;;;;7.47;53.61;91411.41;5021121;28;20435;-90
2021/10/10 09:40:34;;;;;;;4.35;3.00;;;;;;;7.63;57.22;91413.34;5021696;28;20035;-89
2021/10/10 09:43:03;;;;;;;6.55;2.85;;;;;;;7.76;57.02;91408.38;5054050;28;20095;-89
2021/10/10 09:46:10;;;;;;;5.45;3.38;;;;;;;7.94;59.28;91417.00;5020732;28;20032;-90
2021/10/10 09:48:31;;;;;;;7.60;3.70;;;;;;;8.09;58.28;91422.56;5035067;28;20032;-90
2021/10/10 09:50:56;;;;;;;5.57;2.65;;;;;;;8.14;57.16;91414.63;5039319;28;20040;-90
2021/10/10 09:53:30;;;;;;;4.40;2.92;;;;;;;8.39;56.69;91425.44;5053935;28;20017;-90
2021/10/10 09:56:06;;;;;;;4.00;2.72;;;;;;;8.58;53.78;91415.53;5037216;28;20021;-90
2021/10/10 09:58:42;;;;;;;4.55;3.10;;;;;;;8.61;52.76;91421.97;5053612;28;20056;-89
2021/10/10 10:01:15;;;;;;;7.85;2.88;;;;;;;8.80;54.42;91419.13;5020626;28;20028;-90
2021/10/10 10:04:05;;;;;;;5.95;2.53;;;;;;;8.69;48.12;91413.41;5020820;28;20479;-90
2021/10/10 10:06:35;;;;;;;7.28;2.67;;;;;;;8.86;53.41;91413.44;5037914;28;20028;-90
2021/10/10 10:09:04;;;;;;;5.85;2.63;;;;;;;8.94;52.36;91414.53;5021388;28;20028;-90
2021/10/10 10:11:40;;;;;;;4.70;2.75;;;;;;;9.03;48.58;91422.34;5038037;28;20028;-89
2021/10/10 10:14:10;;;;;;;7.40;2.60;;;;;;;9.19;47.70;91414.84;5040380;28;20032;-89
2021/10/10 10:16:43;;;;;;;3.88;2.40;;;;;;;9.20;48.40;91413.78;5022848;28;20025;-89
2021/10/10 10:19:15;;;;;;;4.20;2.42;;;;;;;9.15;47.52;91411.31;5017998;28;20018;-90
2021/10/10 10:21:41;;;;;;;5.38;3.00;;;;;;;9.15;49.91;91413.91;5034352;28;20021;-90
2021/10/10 10:24:07;;;;;;;4.90;2.67;;;;;;;9.24;48.52;91414.69;5002171;28;20013;-90
2021/10/10 10:26:33;;;;;;;3.72;2.25;;;;;;;9.33;46.33;91412.84;5001947;28;20187;-90
2021/10/10 10:29:05;;;;;;;4.18;2.17;;;;;;;9.46;46.94;91416.34;5001308;28;20033;-90
2021/10/10 10:31:31;;;;;;;5.10;2.47;;;;;;;9.28;41.25;91413.75;5001841;28;20021;-89
2021/10/10 10:34:35;;;;;;;3.85;2.17;;;;;;;8.98;42.78;91420.66;5001740;28;20112;-90
2021/10/10 10:37:07;;;;;;;6.47;2.65;;;;;;;9.24;44.39;91414.69;4939321;29;20027;-89
2021/10/10 10:39:47;;;;;;;3.42;2.20;;;;;;;9.16;43.75;91415.47;4954664;29;20058;-90
2021/10/10 10:42:19;;;;;;;4.10;2.60;;;;;;;9.25;46.32;91419.56;4995454;28;20057;-90
2021/10/10 10:44:46;;;;;;;6.55;2.35;;;;;;;9.28;41.41;91421.56;5001900;28;20083;-90
2021/10/10 10:47:18;;;;;;;5.72;2.15;;;;;;;9.41;42.13;91417.28;5001655;28;20565;-88
2021/10/10 10:49:59;;;;;;;4.93;2.08;;;;;;;9.51;43.65;91418.81;5017498;28;20033;-90
2021/10/10 10:52:27;;;;;;;4.60;1.98;;;;;;;9.70;46.40;91416.63;5035324;28;20098;-90
2021/10/10 10:55:12;;;;;;;4.65;2.28;;;;;;;9.58;41.65;91421.69;5017773;28;20112;-90
2021/10/10 10:57:53;;;;;;;5.25;2.42;;;;;;;9.69;46.97;91416.94;5002674;28;20049;-90
2021/10/10 11:00:33;;;;;;;3.92;2.20;;;;;;;9.85;44.22;91423.16;5033819;28;20079;-90
2021/10/10 11:02:58;;;;;;;6.82;2.55;;;;;;;9.90;45.09;91423.00;5000269;28;20039;-90
2021/10/10 11:05:39;;;;;;;6.38;2.53;;;;;;;9.77;42.87;91414.31;5015727;28;20026;-90
2021/10/10 11:08:27;;;;;;;4.53;2.45;;;;;;;9.79;45.24;91411.41;5033442;28;20025;-90
2021/10/10 11:11:24;;;;;;;4.93;2.38;;;;;;;10.11;46.92;91414.53;5022800;28;20049;-91
2021/10/10 11:13:55;;;;;;;6.45;2.50;;;;;;;10.14;45.59;91411.28;5033368;28;20028;-90
2021/10/10 11:16:28;;;;;;;4.72;2.70;;;;;;;10.21;46.66;91411.53;5033726;28;20115;-90
2021/10/10 11:18:53;;;;;;;4.70;2.47;;;;;;;10.46;44.83;91402.13;5017220;28;20502;-90
2021/10/10 11:21:22;;;;;;;7.50;2.60;;;;;;;10.44;46.08;91402.44;5035276;28;20028;-90
2021/10/10 11:23:50;;;;;;;4.40;2.63;;;;;;;10.64;45.73;91403.56;5003014;28;20040;-91
2021/10/10 11:26:15;;;;;;;5.82;2.80;;;;;;;10.73;43.42;91398.28;5018735;28;20025;-90
2021/10/10 11:28:47;;;;;;;5.78;2.60;;;;;;;10.83;44.47;91404.97;5035209;28;20032;-90
2021/10/10 11:31:19;;;;;;;5.60;2.90;;;;;;;10.61;45.49;91408.66;5019402;28;20021;-90
2021/10/10 11:33:46;;;;;;;7.47;3.20;;;;;;;10.85;47.33;91403.59;5035178;28;20037;-90
2021/10/10 11:36:12;;;;;;;7.57;2.65;;;;;;;10.97;45.25;91406.25;5018564;28;20024;-88
2021/10/10 11:38:54;;;;;;;5.85;2.65;;;;;;;10.82;46.40;91406.06;5035190;28;20036;-91